Time,TemperatureF,DewpointF,PressureIn,WindDirection,WindDirectionDegrees,WindSpeedMPH,WindSpeedGustMPH,Humidity,HourlyPrecipIn,Conditions,Clouds,dailyrainin,SoftwareType,DateUTC
2013-06-15 00:05:00,66.3,64.8,30.04,ESE,105,0.0,0.0,95,0.00,,,0.00,Wunderground v.1.15,2013-06-15 04:05:00,
2013-06-15 00:10:00,66.2,64.7,30.04,ESE,105,0.0,0.0,95,0.00,,,0.00,Wunderground v.1.15,2013-06-15 04:10:00,
2013-06-15 00:15:00,66.1,64.6,30.03,ESE,105,0.0,0.0,95,0.00,,,0.00,Wunderground v.1.15,2013-06-15 04:15:00,
2013-06-15 00:20:00,66.0,64.5,30.03,ESE,105,0.0,0.0,95,0.00,,,0.00,Wunderground v.1.15,2013-06-15 04:20:00,
2013-06-15 00:30:00,65.8,64.3,30.04,ESE,105,0.0,0.0,95,0.00,,,0.00,Wunderground v.1.15,2013-06-15 04:30:00,
2013-06-15 00:35:00,65.7,64.2,30.04,ESE,105,0.0,0.0,95,0.00,,,0.00,Wunderground v.1.15,2013-06-15 04:35:00,
2013-06-15 00:45:00,65.8,64.6,30.04,ESE,105,0.0,0.0,96,0.00,,,0.00,Wunderground v.1.15,2013-06-15 04:45:00,
2013-06-15 00:50:00,65.8,64.6,30.04,ESE,105,0.0,0.0,96,0.00,,,0.00,Wunderground v.1.15,2013-06-15 04:50:00,
2013-06-15 01:00:00,65.8,64.6,30.05,ESE,105,0.0,0.0,96,0.00,,,0.00,Wunderground v.1.15,2013-06-15 05:00:00,
2013-06-15 01:10:00,65.7,64.5,30.05,ESE,105,0.0,0.0,96,0.00,,,0.00,Wunderground v.1.15,2013-06-15 05:10:00,
2013-06-15 01:15:00,65.5,64.3,30.05,ESE,105,0.0,0.0,96,0.00,,,0.00,Wunderground v.1.15,2013-06-15 05:15:00,
2013-06-15 01:20:00,65.4,64.2,30.05,ESE,105,0.0,0.0,96,0.00,,,0.00,Wunderground v.1.15,2013-06-15 05:20:00,
2013-06-15 01:30:00,65.2,64.0,30.05,ESE,105,0.0,0.0,96,0.00,,,0.00,Wunderground v.1.15,2013-06-15 05:30:00,
2013-06-15 01:35:00,65.1,63.9,30.05,ESE,105,0.0,0.0,96,0.00,,,0.00,Wunderground v.1.15,2013-06-15 05:35:00,
2013-06-15 01:40:00,64.9,63.7,30.06,ESE,105,0.0,0.0,96,0.00,,,0.00,Wunderground v.1.15,2013-06-15 05:40:00,
2013-06-15 01:45:00,64.8,63.6,30.06,ESE,105,0.0,0.0,96,0.00,,,0.00,Wunderground v.1.15,2013-06-15 05:45:00,
2013-06-15 01:50:00,64.7,63.5,30.06,ESE,105,0.0,0.0,96,0.00,,,0.00,Wunderground v.1.15,2013-06-15 05:50:00,
2013-06-15 02:00:00,64.3,63.1,30.06,ESE,105,0.0,0.0,96,0.00,,,0.00,Wunderground v.1.15,2013-06-15 06:00:00,
2013-06-15 02:10:00,64.1,62.9,30.06,ESE,105,0.0,0.0,96,0.00,,,0.00,Wunderground v.1.15,2013-06-15 06:10:00,
2013-06-15 02:15:00,64.0,62.8,30.06,ESE,105,0.0,0.0,96,0.00,,,0.00,Wunderground v.1.15,2013-06-15 06:15:00,
2013-06-15 02:25:00,63.6,62.4,30.06,ESE,105,0.0,0.0,96,0.00,,,0.00,Wunderground v.1.15,2013-06-15 06:25:00,
2013-06-15 02:30:00,63.4,62.2,30.06,ESE,105,0.0,0.0,96,0.00,,,0.00,Wunderground v.1.15,2013-06-15 06:30:00,
2013-06-15 02:35:00,63.3,62.1,30.06,ESE,105,0.0,0.0,96,0.00,,,0.00,Wunderground v.1.15,2013-06-15 06:35:00,
2013-06-15 02:45:00,62.9,61.7,30.05,ESE,105,0.0,0.0,96,0.00,,,0.00,Wunderground v.1.15,2013-06-15 06:45:00,
2013-06-15 02:55:00,62.6,61.4,30.06,ESE,105,0.0,0.0,96,0.00,,,0.00,Wunderground v.1.15,2013-06-15 06:55:00,
2013-06-15 03:05:00,62.3,61.1,30.06,ESE,105,0.0,0.0,96,0.00,,,0.00,Wunderground v.1.15,2013-06-15 07:05:00,
2013-06-15 03:10:00,62.2,61.0,30.06,ESE,105,0.0,0.0,96,0.00,,,0.00,Wunderground v.1.15,2013-06-15 07:10:00,
2013-06-15 03:20:00,62.0,60.8,30.06,ESE,105,0.0,0.0,96,0.00,,,0.00,Wunderground v.1.15,2013-06-15 07:20:00,
2013-06-15 03:25:00,61.8,60.6,30.06,ESE,105,0.0,0.0,96,0.00,,,0.00,Wunderground v.1.15,2013-06-15 07:25:00,
2013-06-15 03:35:00,61.6,60.4,30.06,ESE,105,0.0,0.0,96,0.00,,,0.00,Wunderground v.1.15,2013-06-15 07:35:00,
2013-06-15 03:45:00,61.4,60.2,30.06,ESE,105,0.0,0.0,96,0.00,,,0.00,Wunderground v.1.15,2013-06-15 07:45:00,
2013-06-15 03:50:00,61.4,60.5,30.05,ESE,105,0.0,0.0,97,0.00,,,0.00,Wunderground v.1.15,2013-06-15 07:50:00,
2013-06-15 04:00:00,61.3,60.4,30.06,ESE,105,0.0,0.0,97,0.00,,,0.00,Wunderground v.1.15,2013-06-15 08:00:00,
2013-06-15 04:10:00,61.0,60.1,30.06,ESE,105,0.0,0.0,97,0.00,,,0.00,Wunderground v.1.15,2013-06-15 08:10:00,
2013-06-15 04:15:00,60.9,60.0,30.06,ESE,105,0.0,0.0,97,0.00,,,0.00,Wunderground v.1.15,2013-06-15 08:15:00,
2013-06-15 04:20:00,60.8,59.9,30.06,ESE,105,0.0,0.0,97,0.00,,,0.00,Wunderground v.1.15,2013-06-15 08:20:00,
2013-06-15 04:30:00,60.5,59.6,30.06,ESE,105,0.0,0.0,97,0.00,,,0.00,Wunderground v.1.15,2013-06-15 08:30:00,
2013-06-15 04:35:00,60.4,59.5,30.06,ESE,105,0.0,0.0,97,0.00,,,0.00,Wunderground v.1.15,2013-06-15 08:35:00,
2013-06-15 04:45:00,60.1,59.2,30.06,ESE,105,0.0,0.0,97,0.00,,,0.00,Wunderground v.1.15,2013-06-15 08:45:00,
2013-06-15 04:50:00,60.0,59.1,30.05,ESE,105,0.0,0.0,97,0.00,,,0.00,Wunderground v.1.15,2013-06-15 08:50:00,
2013-06-15 05:00:00,59.8,58.9,30.05,ESE,105,0.0,0.0,97,0.00,,,0.00,Wunderground v.1.15,2013-06-15 09:00:00,
2013-06-15 05:05:00,59.7,58.8,30.06,ESE,105,0.0,0.0,97,0.00,,,0.00,Wunderground v.1.15,2013-06-15 09:05:00,
2013-06-15 05:10:00,59.6,58.7,30.06,ESE,105,0.0,0.0,97,0.00,,,0.00,Wunderground v.1.15,2013-06-15 09:10:00,
2013-06-15 05:15:00,59.5,58.6,30.06,ESE,105,0.0,0.0,97,0.00,,,0.00,Wunderground v.1.15,2013-06-15 09:15:00,
2013-06-15 05:20:00,59.4,58.5,30.06,ESE,105,0.0,0.0,97,0.00,,,0.00,Wunderground v.1.15,2013-06-15 09:20:00,
2013-06-15 05:30:00,59.5,58.6,30.07,ESE,105,0.0,0.0,97,0.00,,,0.00,Wunderground v.1.15,2013-06-15 09:30:00,
2013-06-15 05:35:00,59.6,58.7,30.07,ESE,105,0.0,0.0,97,0.00,,,0.00,Wunderground v.1.15,2013-06-15 09:35:00,
2013-06-15 05:45:00,59.5,58.6,30.07,ESE,105,0.0,0.0,97,0.00,,,0.00,Wunderground v.1.15,2013-06-15 09:45:00,
2013-06-15 05:55:00,59.0,58.2,30.08,ESE,105,0.0,0.0,97,0.00,,,0.00,Wunderground v.1.15,2013-06-15 09:55:00,
2013-06-15 06:00:00,59.0,58.2,30.08,ESE,105,0.0,0.0,97,0.00,,,0.00,Wunderground v.1.15,2013-06-15 10:00:00,
2013-06-15 06:05:00,58.9,58.1,30.09,ESE,105,0.0,0.0,97,0.00,,,0.00,Wunderground v.1.15,2013-06-15 10:05:00,
2013-06-15 06:15:00,58.6,57.8,30.09,ESE,105,0.0,0.0,97,0.00,,,0.00,Wunderground v.1.15,2013-06-15 10:15:00,
2013-06-15 06:25:00,58.4,57.6,30.09,ESE,105,0.0,0.0,97,0.00,,,0.00,Wunderground v.1.15,2013-06-15 10:25:00,
2013-06-15 06:30:00,58.3,57.5,30.10,ESE,105,0.0,0.0,97,0.00,,,0.00,Wunderground v.1.15,2013-06-15 10:30:00,
2013-06-15 06:35:00,58.2,57.4,30.10,ESE,105,0.0,0.0,97,0.00,,,0.00,Wunderground v.1.15,2013-06-15 10:35:00,
2013-06-15 06:45:00,58.3,57.5,30.10,ESE,105,0.0,0.0,97,0.00,,,0.00,Wunderground v.1.15,2013-06-15 10:45:00,
2013-06-15 06:50:00,58.2,57.4,30.11,ESE,105,0.0,0.0,97,0.00,,,0.00,Wunderground v.1.15,2013-06-15 10:50:00,
2013-06-15 07:00:00,59.0,58.4,30.11,ESE,105,0.0,0.0,98,0.00,,,0.00,Wunderground v.1.15,2013-06-15 11:00:00,
2013-06-15 07:05:00,59.7,59.1,30.12,ESE,105,0.0,0.0,98,0.00,,,0.00,Wunderground v.1.15,2013-06-15 11:05:00,
2013-06-15 07:10:00,60.5,59.9,30.12,ESE,105,0.0,0.0,98,0.00,,,0.00,Wunderground v.1.15,2013-06-15 11:10:00,
2013-06-15 07:20:00,62.0,61.4,30.12,ESE,105,0.0,0.0,98,0.00,,,0.00,Wunderground v.1.15,2013-06-15 11:20:00,
2013-06-15 07:25:00,62.5,61.9,30.12,ESE,105,0.0,0.0,98,0.00,,,0.00,Wunderground v.1.15,2013-06-15 11:25:00,
2013-06-15 07:35:00,63.5,62.9,30.12,ESE,105,0.0,0.0,98,0.00,,,0.00,Wunderground v.1.15,2013-06-15 11:35:00,
2013-06-15 07:40:00,64.6,63.7,30.13,ESE,105,0.0,0.0,97,0.00,,,0.00,Wunderground v.1.15,2013-06-15 11:40:00,
2013-06-15 07:50:00,65.9,64.1,30.12,ESE,105,0.0,0.0,94,0.00,,,0.00,Wunderground v.1.15,2013-06-15 11:50:00,
2013-06-15 07:55:00,66.3,63.9,30.12,ESE,105,0.0,0.0,92,0.00,,,0.00,Wunderground v.1.15,2013-06-15 11:55:00,
2013-06-15 08:00:00,66.8,64.4,30.13,ESE,105,0.0,0.0,92,0.00,,,0.00,Wunderground v.1.15,2013-06-15 12:00:00,
2013-06-15 08:05:00,67.7,65.3,30.13,ESE,105,0.0,0.0,92,0.00,,,0.00,Wunderground v.1.15,2013-06-15 12:05:00,
2013-06-15 08:10:00,68.6,65.9,30.13,ESE,105,0.0,0.0,91,0.00,,,0.00,Wunderground v.1.15,2013-06-15 12:10:00,
2013-06-15 08:20:00,69.4,65.4,30.13,ESE,105,0.0,0.0,87,0.00,,,0.00,Wunderground v.1.15,2013-06-15 12:20:00,
2013-06-15 08:30:00,70.6,64.5,30.14,ESE,107,0.0,0.0,81,0.00,,,0.00,Wunderground v.1.15,2013-06-15 12:30:00,
2013-06-15 08:35:00,70.9,64.1,30.14,ESE,103,1.0,1.0,79,0.00,,,0.00,Wunderground v.1.15,2013-06-15 12:35:00,
2013-06-15 08:40:00,71.3,64.4,30.14,East,101,1.0,1.0,79,0.00,,,0.00,Wunderground v.1.15,2013-06-15 12:40:00,
2013-06-15 08:45:00,71.6,63.6,30.14,East,99,1.0,1.0,76,0.00,,,0.00,Wunderground v.1.15,2013-06-15 12:45:00,
2013-06-15 08:55:00,72.4,64.4,30.15,East,95,1.0,1.0,76,0.00,,,0.00,Wunderground v.1.15,2013-06-15 12:55:00,
2013-06-15 09:05:00,73.2,64.4,30.14,ESE,117,1.0,2.0,74,0.00,,,0.00,Wunderground v.1.15,2013-06-15 13:05:00,
2013-06-15 09:10:00,73.6,65.6,30.15,SE,136,1.0,3.0,76,0.00,,,0.00,Wunderground v.1.15,2013-06-15 13:10:00,
2013-06-15 09:20:00,74.4,65.2,30.14,ESE,121,2.0,2.0,73,0.00,,,0.00,Wunderground v.1.15,2013-06-15 13:20:00,
2013-06-15 09:30:00,75.3,66.0,30.15,ESE,109,2.0,2.0,73,0.00,,,0.00,Wunderground v.1.15,2013-06-15 13:30:00,
2013-06-15 09:40:00,76.6,66.1,30.15,SSE,155,2.0,2.0,70,0.00,,,0.00,Wunderground v.1.15,2013-06-15 13:40:00,
2013-06-15 09:45:00,76.9,66.8,30.15,SE,136,2.0,2.0,71,0.00,,,0.00,Wunderground v.1.15,2013-06-15 13:45:00,
2013-06-15 09:50:00,77.6,67.4,30.15,SE,132,2.0,2.0,71,0.00,,,0.00,Wunderground v.1.15,2013-06-15 13:50:00,
2013-06-15 10:00:00,78.2,65.9,30.15,SSE,151,2.0,3.0,66,0.00,,,0.00,Wunderground v.1.15,2013-06-15 14:00:00,
2013-06-15 10:10:00,78.5,66.2,30.15,SE,142,3.0,4.0,66,0.00,,,0.00,Wunderground v.1.15,2013-06-15 14:10:00,
2013-06-15 10:20:00,79.1,65.9,30.15,SSE,156,4.0,4.0,64,0.00,,,0.00,Wunderground v.1.15,2013-06-15 14:20:00,
2013-06-15 10:25:00,79.4,66.2,30.15,ESE,123,3.0,4.0,64,0.00,,,0.00,Wunderground v.1.15,2013-06-15 14:25:00,
2013-06-15 10:35:00,79.5,62.9,30.16,SE,141,3.0,6.0,57,0.00,,,0.00,Wunderground v.1.15,2013-06-15 14:35:00,
2013-06-15 10:40:00,79.4,64.8,30.16,SE,140,5.0,5.0,61,0.00,,,0.00,Wunderground v.1.15,2013-06-15 14:40:00,
2013-06-15 10:50:00,80.1,62.0,30.16,East,94,4.0,4.0,54,0.00,,,0.00,Wunderground v.1.15,2013-06-15 14:50:00,
2013-06-15 11:00:00,80.4,61.2,30.15,SE,130,5.0,7.0,52,0.00,,,0.00,Wunderground v.1.15,2013-06-15 15:00:00,
2013-06-15 11:05:00,80.5,61.8,30.16,SE,128,5.0,7.0,53,0.00,,,0.00,Wunderground v.1.15,2013-06-15 15:05:00,
2013-06-15 11:15:00,81.0,62.3,30.16,SE,145,5.0,5.0,53,0.00,,,0.00,Wunderground v.1.15,2013-06-15 15:15:00,
2013-06-15 11:25:00,81.3,60.3,30.16,ESE,118,3.0,4.0,49,0.00,,,0.00,Wunderground v.1.15,2013-06-15 15:25:00,
2013-06-15 11:35:00,81.4,59.8,30.16,South,173,3.0,6.0,48,0.00,,,0.00,Wunderground v.1.15,2013-06-15 15:35:00,
2013-06-15 11:40:00,80.3,60.5,30.15,SSE,163,5.0,5.0,51,0.00,,,0.00,Wunderground v.1.15,2013-06-15 15:40:00,
2013-06-15 11:50:00,81.3,59.7,30.15,SSE,158,3.0,6.0,48,0.00,,,0.00,Wunderground v.1.15,2013-06-15 15:50:00,
2013-06-15 11:55:00,81.7,57.7,30.15,ESE,106,5.0,6.0,44,0.00,,,0.00,Wunderground v.1.15,2013-06-15 15:55:00,
2013-06-15 12:05:00,82.4,61.3,30.15,SE,130,3.0,5.0,49,0.00,,,0.00,Wunderground v.1.15,2013-06-15 16:05:00,
2013-06-15 12:10:00,82.0,60.4,30.15,SSE,156,5.0,9.0,48,0.00,,,0.00,Wunderground v.1.15,2013-06-15 16:10:00,
2013-06-15 12:20:00,81.2,59.6,30.16,South,178,5.0,5.0,48,0.00,,,0.00,Wunderground v.1.15,2013-06-15 16:20:00,
2013-06-15 12:30:00,82.6,60.3,30.15,SSE,148,4.0,4.0,47,0.00,,,0.00,Wunderground v.1.15,2013-06-15 16:30:00,
2013-06-15 12:40:00,82.9,60.0,30.15,SE,134,3.0,8.0,46,0.00,,,0.00,Wunderground v.1.15,2013-06-15 16:40:00,
2013-06-15 12:50:00,82.6,59.7,30.15,East,94,5.0,5.0,46,0.00,,,0.00,Wunderground v.1.15,2013-06-15 16:50:00,
2013-06-15 12:55:00,82.6,58.5,30.15,NNE,15,4.0,5.0,44,0.00,,,0.00,Wunderground v.1.15,2013-06-15 16:55:00,
2013-06-15 13:00:00,82.7,57.9,30.15,SSW,194,2.0,2.0,43,0.00,,,0.00,Wunderground v.1.15,2013-06-15 17:00:00,
2013-06-15 13:10:00,83.0,58.8,30.15,SE,142,4.0,4.0,44,0.00,,,0.00,Wunderground v.1.15,2013-06-15 17:10:00,
2013-06-15 13:15:00,83.0,59.5,30.14,East,83,4.0,4.0,45,0.00,,,0.00,Wunderground v.1.15,2013-06-15 17:15:00,
2013-06-15 13:20:00,83.1,59.6,30.14,SSE,150,2.0,4.0,45,0.00,,,0.00,Wunderground v.1.15,2013-06-15 17:20:00,
2013-06-15 13:30:00,83.5,59.3,30.14,SE,141,2.0,4.0,44,0.00,,,0.00,Wunderground v.1.15,2013-06-15 17:30:00,
2013-06-15 13:35:00,83.6,60.0,30.14,South,183,3.0,4.0,45,0.00,,,0.00,Wunderground v.1.15,2013-06-15 17:35:00,
2013-06-15 13:45:00,83.0,60.1,30.14,SSE,164,5.0,5.0,46,0.00,,,0.00,Wunderground v.1.15,2013-06-15 17:45:00,
2013-06-15 13:50:00,83.3,61.0,30.13,South,181,5.0,5.0,47,0.00,,,0.00,Wunderground v.1.15,2013-06-15 17:50:00,
2013-06-15 14:00:00,83.1,59.6,30.14,ENE,76,4.0,5.0,45,0.00,,,0.00,Wunderground v.1.15,2013-06-15 18:00:00,
2013-06-15 14:05:00,83.3,57.8,30.14,East,99,5.0,5.0,42,0.00,,,0.00,Wunderground v.1.15,2013-06-15 18:05:00,
2013-06-15 14:10:00,83.4,58.6,30.13,SSE,149,4.0,4.0,43,0.00,,,0.00,Wunderground v.1.15,2013-06-15 18:10:00,
2013-06-15 14:20:00,84.1,59.8,30.13,SE,140,2.0,5.0,44,0.00,,,0.00,Wunderground v.1.15,2013-06-15 18:20:00,
2013-06-15 14:30:00,83.9,63.3,30.13,South,179,4.0,4.0,50,0.00,,,0.00,Wunderground v.1.15,2013-06-15 18:30:00,
2013-06-15 14:35:00,84.9,61.8,30.13,South,171,1.0,4.0,46,0.00,,,0.00,Wunderground v.1.15,2013-06-15 18:35:00,
2013-06-15 14:45:00,85.5,61.1,30.13,NNE,29,3.0,5.0,44,0.00,,,0.00,Wunderground v.1.15,2013-06-15 18:45:00,
2013-06-15 14:50:00,84.6,59.0,30.13,NNE,13,4.0,4.0,42,0.00,,,0.00,Wunderground v.1.15,2013-06-15 18:50:00,
2013-06-15 15:00:00,84.8,61.1,30.13,SE,134,1.0,4.0,45,0.00,,,0.00,Wunderground v.1.15,2013-06-15 19:00:00,
2013-06-15 15:05:00,84.3,60.6,30.13,SSE,165,2.0,5.0,45,0.00,,,0.00,Wunderground v.1.15,2013-06-15 19:05:00,
2013-06-15 15:10:00,84.5,60.2,30.13,ESE,107,4.0,4.0,44,0.00,,,0.00,Wunderground v.1.15,2013-06-15 19:10:00,
2013-06-15 15:20:00,84.8,60.5,30.13,North,5,2.0,3.0,44,0.00,,,0.00,Wunderground v.1.15,2013-06-15 19:20:00,
2013-06-15 15:25:00,85.3,62.8,30.13,NNW,340,2.0,4.0,47,0.00,,,0.00,Wunderground v.1.15,2013-06-15 19:25:00,
2013-06-15 15:35:00,85.3,61.6,30.12,NNE,28,3.0,3.0,45,0.00,,,0.00,Wunderground v.1.15,2013-06-15 19:35:00,
2013-06-15 15:40:00,85.0,60.6,30.12,ESE,104,3.0,3.0,44,0.00,,,0.00,Wunderground v.1.15,2013-06-15 19:40:00,
2013-06-15 15:45:00,84.7,61.0,30.12,SE,137,3.0,5.0,45,0.00,,,0.00,Wunderground v.1.15,2013-06-15 19:45:00,
2013-06-15 15:55:00,83.6,61.2,30.11,SE,141,5.0,5.0,47,0.00,,,0.00,Wunderground v.1.15,2013-06-15 19:55:00,
2013-06-15 16:05:00,83.9,60.3,30.11,ESE,103,3.0,5.0,45,0.00,,,0.00,Wunderground v.1.15,2013-06-15 20:05:00,
2013-06-15 16:10:00,83.9,62.1,30.11,ESE,117,3.0,3.0,48,0.00,,,0.00,Wunderground v.1.15,2013-06-15 20:10:00,
2013-06-15 16:20:00,84.9,62.4,30.12,WSW,247,1.0,1.0,47,0.00,,,0.00,Wunderground v.1.15,2013-06-15 20:20:00,
2013-06-15 16:30:00,83.7,60.1,30.12,ESE,106,3.0,4.0,45,0.00,,,0.00,Wunderground v.1.15,2013-06-15 20:30:00,
2013-06-15 16:35:00,83.2,59.6,30.12,SE,125,3.0,4.0,45,0.00,,,0.00,Wunderground v.1.15,2013-06-15 20:35:00,
2013-06-15 16:45:00,83.9,60.3,30.11,East,98,3.0,5.0,45,0.00,,,0.00,Wunderground v.1.15,2013-06-15 20:45:00,
2013-06-15 16:50:00,83.7,60.7,30.11,ESE,117,3.0,4.0,46,0.00,,,0.00,Wunderground v.1.15,2013-06-15 20:50:00,
2013-06-15 17:00:00,83.8,62.0,30.11,East,83,2.0,3.0,48,0.00,,,0.00,Wunderground v.1.15,2013-06-15 21:00:00,
2013-06-15 17:10:00,83.6,60.6,30.11,ENE,65,2.0,5.0,46,0.00,,,0.00,Wunderground v.1.15,2013-06-15 21:10:00,
2013-06-15 17:20:00,83.4,59.2,30.11,NE,41,2.0,2.0,44,0.00,,,0.00,Wunderground v.1.15,2013-06-15 21:20:00,
2013-06-15 17:25:00,83.5,66.7,30.11,East,91,1.0,2.0,57,0.00,,,0.00,Wunderground v.1.15,2013-06-15 21:25:00,
2013-06-15 17:30:00,83.3,66.0,30.11,East,91,0.0,0.0,56,0.00,,,0.00,Wunderground v.1.15,2013-06-15 21:30:00,
2013-06-15 17:40:00,82.0,68.6,30.11,East,91,0.0,0.0,64,0.00,,,0.00,Wunderground v.1.15,2013-06-15 21:40:00,
2013-06-15 17:50:00,80.4,66.6,30.11,East,91,0.0,0.0,63,0.00,,,0.00,Wunderground v.1.15,2013-06-15 21:50:00,
2013-06-15 17:55:00,79.9,68.0,30.11,East,91,0.0,0.0,67,0.00,,,0.00,Wunderground v.1.15,2013-06-15 21:55:00,
2013-06-15 18:00:00,79.4,67.0,30.11,East,91,0.0,0.0,66,0.00,,,0.00,Wunderground v.1.15,2013-06-15 22:00:00,
2013-06-15 18:05:00,79.0,68.0,30.10,East,91,0.0,0.0,69,0.00,,,0.00,Wunderground v.1.15,2013-06-15 22:05:00,
2013-06-15 18:15:00,80.4,70.5,30.10,East,91,0.0,0.0,72,0.00,,,0.00,Wunderground v.1.15,2013-06-15 22:15:00,
2013-06-15 18:25:00,83.0,69.1,30.10,East,91,0.0,0.0,63,0.00,,,0.00,Wunderground v.1.15,2013-06-15 22:25:00,
2013-06-15 18:35:00,82.7,68.4,30.10,West,272,0.0,0.0,62,0.00,,,0.00,Wunderground v.1.15,2013-06-15 22:35:00,
2013-06-15 18:40:00,82.7,68.8,30.10,West,273,0.0,0.0,63,0.00,,,0.00,Wunderground v.1.15,2013-06-15 22:40:00,
2013-06-15 18:50:00,82.7,63.3,30.09,ENE,71,1.0,1.0,52,0.00,,,0.00,Wunderground v.1.15,2013-06-15 22:50:00,
2013-06-15 18:55:00,82.6,64.3,30.10,East,79,1.0,1.0,54,0.00,,,0.00,Wunderground v.1.15,2013-06-15 22:55:00,
2013-06-15 19:05:00,82.6,63.2,30.09,ENE,73,0.0,1.0,52,0.00,,,0.00,Wunderground v.1.15,2013-06-15 23:05:00,
2013-06-15 19:10:00,82.6,66.8,30.10,East,96,0.0,0.0,59,0.00,,,0.00,Wunderground v.1.15,2013-06-15 23:10:00,
2013-06-15 19:20:00,81.5,67.2,30.10,East,86,0.0,0.0,62,0.00,,,0.00,Wunderground v.1.15,2013-06-15 23:20:00,
2013-06-15 19:30:00,80.4,67.6,30.10,East,86,0.0,0.0,65,0.00,,,0.00,Wunderground v.1.15,2013-06-15 23:30:00,
2013-06-15 19:35:00,80.2,67.4,30.10,East,86,0.0,0.0,65,0.00,,,0.00,Wunderground v.1.15,2013-06-15 23:35:00,
2013-06-15 19:45:00,79.7,69.0,30.10,East,86,0.0,0.0,70,0.00,,,0.00,Wunderground v.1.15,2013-06-15 23:45:00,
2013-06-15 19:50:00,79.1,69.3,30.10,East,86,0.0,0.0,72,0.00,,,0.00,Wunderground v.1.15,2013-06-15 23:50:00,
2013-06-15 19:55:00,78.7,69.7,30.10,East,86,0.0,0.0,74,0.00,,,0.00,Wunderground v.1.15,2013-06-15 23:55:00,
2013-06-15 20:05:00,77.6,69.0,30.10,East,86,0.0,0.0,75,0.00,,,0.00,Wunderground v.1.15,2013-06-16 00:05:00,
2013-06-15 20:10:00,76.9,69.5,30.10,East,86,0.0,0.0,78,0.00,,,0.00,Wunderground v.1.15,2013-06-16 00:10:00,
2013-06-15 20:20:00,75.4,68.8,30.10,East,86,0.0,0.0,80,0.00,,,0.00,Wunderground v.1.15,2013-06-16 00:20:00,
2013-06-15 20:25:00,74.9,69.0,30.10,East,86,0.0,0.0,82,0.00,,,0.00,Wunderground v.1.15,2013-06-16 00:25:00,
2013-06-15 20:30:00,74.4,68.5,30.10,East,86,0.0,0.0,82,0.00,,,0.00,Wunderground v.1.15,2013-06-16 00:30:00,
2013-06-15 20:35:00,73.9,68.8,30.09,East,86,0.0,0.0,84,0.00,,,0.00,Wunderground v.1.15,2013-06-16 00:35:00,
2013-06-15 20:45:00,73.0,68.2,30.09,East,86,0.0,0.0,85,0.00,,,0.00,Wunderground v.1.15,2013-06-16 00:45:00,
2013-06-15 20:55:00,72.0,67.9,30.09,East,86,0.0,0.0,87,0.00,,,0.00,Wunderground v.1.15,2013-06-16 00:55:00,
2013-06-15 21:00:00,71.6,67.5,30.09,East,86,0.0,0.0,87,0.00,,,0.00,Wunderground v.1.15,2013-06-16 01:00:00,
2013-06-15 21:05:00,71.3,67.6,30.09,East,86,0.0,0.0,88,0.00,,,0.00,Wunderground v.1.15,2013-06-16 01:05:00,
2013-06-15 21:15:00,70.5,67.1,30.09,East,86,0.0,0.0,89,0.00,,,0.00,Wunderground v.1.15,2013-06-16 01:15:00,
2013-06-15 21:20:00,70.2,66.8,30.09,East,86,0.0,0.0,89,0.00,,,0.00,Wunderground v.1.15,2013-06-16 01:20:00,
2013-06-15 21:30:00,69.7,67.0,30.09,East,86,0.0,0.0,91,0.00,,,0.00,Wunderground v.1.15,2013-06-16 01:30:00,
2013-06-15 21:35:00,69.4,66.7,30.09,East,86,0.0,0.0,91,0.00,,,0.00,Wunderground v.1.15,2013-06-16 01:35:00,
2013-06-15 21:45:00,69.0,66.6,30.09,East,86,0.0,0.0,92,0.00,,,0.00,Wunderground v.1.15,2013-06-16 01:45:00,
2013-06-15 21:55:00,68.7,66.6,30.10,East,86,0.0,0.0,93,0.00,,,0.00,Wunderground v.1.15,2013-06-16 01:55:00,
2013-06-15 22:05:00,68.2,66.1,30.11,East,86,0.0,0.0,93,0.00,,,0.00,Wunderground v.1.15,2013-06-16 02:05:00,
2013-06-15 22:15:00,68.0,66.2,30.11,East,86,0.0,0.0,94,0.00,,,0.00,Wunderground v.1.15,2013-06-16 02:15:00,
2013-06-15 22:20:00,67.9,66.1,30.11,East,86,0.0,0.0,94,0.00,,,0.00,Wunderground v.1.15,2013-06-16 02:20:00,
2013-06-15 22:30:00,67.5,65.7,30.11,East,86,0.0,0.0,94,0.00,,,0.00,Wunderground v.1.15,2013-06-16 02:30:00,
2013-06-15 22:35:00,67.4,65.6,30.12,East,86,0.0,0.0,94,0.00,,,0.00,Wunderground v.1.15,2013-06-16 02:35:00,
2013-06-15 22:40:00,67.2,65.4,30.12,East,86,0.0,0.0,94,0.00,,,0.00,Wunderground v.1.15,2013-06-16 02:40:00,
2013-06-15 22:50:00,66.8,65.3,30.13,East,86,0.0,0.0,95,0.00,,,0.00,Wunderground v.1.15,2013-06-16 02:50:00,
2013-06-15 22:55:00,66.7,65.2,30.13,East,86,0.0,0.0,95,0.00,,,0.00,Wunderground v.1.15,2013-06-16 02:55:00,
2013-06-15 23:05:00,66.3,64.8,30.13,East,86,0.0,0.0,95,0.00,,,0.00,Wunderground v.1.15,2013-06-16 03:05:00,
2013-06-15 23:10:00,66.2,64.7,30.13,East,86,0.0,0.0,95,0.00,,,0.00,Wunderground v.1.15,2013-06-16 03:10:00,
2013-06-15 23:20:00,66.0,64.5,30.13,East,86,0.0,0.0,95,0.00,,,0.00,Wunderground v.1.15,2013-06-16 03:20:00,
2013-06-15 23:30:00,65.7,64.2,30.13,East,86,0.0,0.0,95,0.00,,,0.00,Wunderground v.1.15,2013-06-16 03:30:00,
2013-06-15 23:35:00,65.6,64.4,30.13,East,86,0.0,0.0,96,0.00,,,0.00,Wunderground v.1.15,2013-06-16 03:35:00,
2013-06-15 23:45:00,65.6,64.4,30.14,East,86,0.0,0.0,96,0.00,,,0.00,Wunderground v.1.15,2013-06-16 03:45:00,
2013-06-15 23:55:00,65.3,64.1,30.14,East,86,0.0,0.0,96,0.00,,,0.00,Wunderground v.1.15,2013-06-16 03:55:00,